createdAt,value
2018-10-07T00:00:06.664Z,100345.70
2018-10-07T00:02:35.632Z,100346.59
2018-10-07T00:05:04.596Z,100358.81
2018-10-07T00:07:33.591Z,100364.95
2018-10-07T00:10:02.581Z,100377.69
2018-10-07T00:12:31.605Z,100373.59
2018-10-07T00:15:00.582Z,100368.68
2018-10-07T00:17:29.597Z,100371.91
2018-10-07T00:19:58.577Z,100368.12
2018-10-07T00:22:27.550Z,100377.61
2018-10-07T00:24:56.547Z,100401.41
2018-10-07T00:27:25.472Z,100427.94
2018-10-07T00:29:54.466Z,100486.41
2018-10-07T00:32:23.653Z,100543.00
2018-10-07T00:34:52.616Z,100551.39
2018-10-07T00:37:21.583Z,100532.97
2018-10-07T00:39:50.761Z,100518.64
2018-10-07T00:42:19.719Z,100510.25
2018-10-07T00:44:48.717Z,100496.18
2018-10-07T00:47:17.750Z,100455.35
2018-10-07T00:49:46.726Z,100450.19
2018-10-07T00:52:15.688Z,100489.44
2018-10-07T00:54:44.626Z,100471.31
2018-10-07T00:57:13.905Z,100472.70
2018-10-07T00:59:42.894Z,100470.23
2018-10-07T01:02:12.197Z,100474.05
2018-10-07T01:04:41.342Z,100469.43
2018-10-07T01:07:10.236Z,100468.37
2018-10-07T01:09:39.170Z,100470.79
2018-10-07T01:12:08.020Z,100468.36
2018-10-07T01:14:36.915Z,100481.59
2018-10-07T01:17:05.871Z,100494.06
2018-10-07T01:19:34.801Z,100495.69
2018-10-07T01:22:03.788Z,100500.02
2018-10-07T01:24:32.701Z,100505.95
2018-10-07T01:27:01.611Z,100514.06
2018-10-07T01:29:30.517Z,100527.58
2018-10-07T01:31:59.524Z,100546.25
2018-10-07T01:34:28.441Z,100551.91
2018-10-07T01:36:57.337Z,100543.53
2018-10-07T01:39:26.281Z,100536.22
2018-10-07T01:41:55.173Z,100546.50
2018-10-07T01:44:24.064Z,100540.27
2018-10-07T01:46:52.966Z,100547.85
2018-10-07T01:49:22.069Z,100554.08
2018-10-07T01:51:51.013Z,100551.38
2018-10-07T01:54:19.880Z,100566.52
2018-10-07T01:56:48.812Z,100580.55
2018-10-07T01:59:17.726Z,100588.12
2018-10-07T02:01:46.592Z,100593.26
2018-10-07T02:04:15.521Z,100595.41
2018-10-07T02:06:44.457Z,100598.68
2018-10-07T02:09:13.412Z,100603.48
2018-10-07T02:11:42.334Z,100606.95
2018-10-07T02:14:11.195Z,100600.02
2018-10-07T02:16:40.085Z,100608.91
2018-10-07T02:19:09.198Z,100612.66
2018-10-07T02:21:38.081Z,100603.73
2018-10-07T02:24:07.567Z,100615.20
2018-10-07T02:26:36.449Z,100620.09
2018-10-07T02:29:05.455Z,100626.63
2018-10-07T02:31:34.326Z,100638.78
2018-10-07T02:34:03.315Z,100648.25
2018-10-07T02:36:32.219Z,100659.58
2018-10-07T02:39:01.231Z,100680.03
2018-10-07T02:41:30.101Z,100706.16
2018-10-07T02:43:59.008Z,100710.62
2018-10-07T02:46:28.035Z,100702.77
2018-10-07T02:48:56.937Z,100706.42
2018-10-07T02:51:25.819Z,100711.37
2018-10-07T02:53:54.789Z,100730.84
2018-10-07T02:56:23.686Z,100735.95
2018-10-07T02:58:52.570Z,100747.33
2018-10-07T03:01:21.470Z,100755.17
2018-10-07T03:03:50.390Z,100758.69
2018-10-07T03:06:19.341Z,100755.94
2018-10-07T03:08:48.312Z,100773.98
2018-10-07T03:11:17.202Z,100774.88
2018-10-07T03:13:46.060Z,100781.14
2018-10-07T03:16:14.976Z,100790.59
2018-10-07T03:18:43.826Z,100804.95
2018-10-07T03:21:12.778Z,100808.86
2018-10-07T03:23:41.664Z,100814.59
2018-10-07T03:26:10.509Z,100826.59
2018-10-07T03:28:39.470Z,100834.47
2018-10-07T03:31:08.347Z,100837.78
2018-10-07T03:33:37.371Z,100872.06
2018-10-07T03:36:06.464Z,100846.18
2018-10-07T03:38:35.346Z,100847.47
2018-10-07T03:41:04.230Z,100858.20
2018-10-07T03:43:33.109Z,100854.02
2018-10-07T03:46:02.013Z,100860.42
2018-10-07T03:48:31.087Z,100866.27
2018-10-07T03:50:59.961Z,100871.08
2018-10-07T03:53:28.834Z,100878.69
2018-10-07T03:55:57.869Z,100877.63
2018-10-07T03:58:26.727Z,100883.09
2018-10-07T04:00:55.630Z,100894.94
2018-10-07T04:03:24.542Z,100904.00
2018-10-07T04:05:53.485Z,100903.20
2018-10-07T04:08:22.362Z,100899.23
2018-10-07T04:10:51.256Z,100903.45
2018-10-07T04:13:20.172Z,100903.39
2018-10-07T04:15:49.061Z,100907.27
2018-10-07T04:18:18.468Z,100912.17
2018-10-07T04:20:47.348Z,100928.77
2018-10-07T04:23:16.766Z,100927.30
2018-10-07T04:25:45.650Z,100922.55
2018-10-07T04:28:14.513Z,100929.13
2018-10-07T04:30:43.438Z,100927.34
2018-10-07T04:33:12.333Z,100929.98
2018-10-07T04:35:41.201Z,100935.58
2018-10-07T04:38:10.248Z,100948.22
2018-10-07T04:40:39.134Z,100951.91
2018-10-07T04:43:08.008Z,100946.52
2018-10-07T04:45:36.901Z,100946.92
2018-10-07T04:48:05.761Z,100967.58
2018-10-07T04:50:34.642Z,100980.84
2018-10-07T04:53:03.576Z,100986.61
2018-10-07T04:55:32.481Z,100987.15
2018-10-07T04:58:01.366Z,100996.03
2018-10-07T05:00:30.268Z,101000.95
2018-10-07T05:02:59.161Z,101000.11
2018-10-07T05:05:28.218Z,101001.86
2018-10-07T05:07:57.260Z,100998.88
2018-10-07T05:10:59.609Z,101007.34
2018-10-07T05:13:49.026Z,101010.06
2018-10-07T05:16:52.617Z,101023.13
2018-10-07T05:19:21.573Z,101016.64
2018-10-07T05:21:50.534Z,101022.91
2018-10-07T05:24:19.447Z,101034.06
2018-10-07T05:26:48.343Z,101042.72
2018-10-07T05:29:17.284Z,101039.80
2018-10-07T05:31:46.218Z,101042.06
2018-10-07T05:34:15.147Z,101060.31
2018-10-07T05:36:44.015Z,101073.87
2018-10-07T05:39:13.216Z,101071.27
2018-10-07T05:41:42.191Z,101070.33
2018-10-07T05:44:11.179Z,101082.56
2018-10-07T05:46:40.314Z,101074.58
2018-10-07T05:49:09.191Z,101080.26
2018-10-07T05:51:38.081Z,101078.88
2018-10-07T05:54:07.165Z,101082.13
2018-10-07T05:56:36.035Z,101086.94
2018-10-07T05:59:05.623Z,101103.86
2018-10-07T06:01:50.032Z,101108.30
2018-10-07T06:05:22.268Z,101111.89
2018-10-07T06:07:51.482Z,101133.70
2018-10-07T06:10:20.386Z,101128.98
2018-10-07T06:12:49.273Z,101141.64
2018-10-07T06:15:27.888Z,101152.81
2018-10-07T06:17:57.035Z,101155.70
2018-10-07T06:20:26.144Z,101164.40
2018-10-07T06:22:55.363Z,101177.12
2018-10-07T06:25:24.303Z,101172.36
2018-10-07T06:27:54.865Z,101178.53
2018-10-07T06:30:23.732Z,101184.87
2018-10-07T06:32:53.259Z,101190.39
2018-10-07T06:35:22.976Z,101195.39
2018-10-07T06:37:51.865Z,101208.92
2018-10-07T06:40:20.755Z,101208.52
2018-10-07T06:42:50.633Z,101209.20
2018-10-07T06:45:19.813Z,101204.88
2018-10-07T06:47:48.852Z,101211.00
2018-10-07T06:50:17.727Z,101217.38
2018-10-07T06:52:46.605Z,101217.45
2018-10-07T06:55:15.523Z,101227.71
2018-10-07T06:57:44.425Z,101237.37
2018-10-07T07:00:13.308Z,101237.34
2018-10-07T07:02:42.234Z,101246.55
2018-10-07T07:05:11.136Z,101249.81
2018-10-07T07:07:40.032Z,101249.97
2018-10-07T07:10:08.938Z,101258.60
2018-10-07T07:12:37.835Z,101256.23
2018-10-07T07:15:07.070Z,101262.27
2018-10-07T07:17:35.981Z,101267.71
2018-10-07T07:20:04.893Z,101267.42
2018-10-07T07:22:33.911Z,101270.53
2018-10-07T07:25:02.783Z,101283.83
2018-10-07T07:27:32.026Z,101281.90
2018-10-07T07:30:00.903Z,101277.69
2018-10-07T07:32:29.737Z,101289.33
2018-10-07T07:34:58.644Z,101295.22
2018-10-07T07:37:27.502Z,101292.98
2018-10-07T07:39:56.390Z,101305.16
2018-10-07T07:42:25.299Z,101306.36
2018-10-07T07:44:54.124Z,101313.37
2018-10-07T07:47:23.034Z,101326.20
2018-10-07T07:49:51.876Z,101327.84
2018-10-07T07:52:20.771Z,101328.43
2018-10-07T07:54:49.654Z,101331.03
2018-10-07T07:57:18.541Z,101339.63
2018-10-07T07:59:47.439Z,101333.74
2018-10-07T08:02:16.293Z,101338.42
2018-10-07T08:04:45.176Z,101338.28
2018-10-07T08:07:14.075Z,101344.12
2018-10-07T08:09:43.021Z,101347.45
2018-10-07T08:12:11.906Z,101348.08
2018-10-07T08:14:40.824Z,101350.22
2018-10-07T08:17:09.725Z,101357.63
2018-10-07T08:19:42.157Z,101365.59
2018-10-07T08:22:11.083Z,101373.00
2018-10-07T08:24:40.004Z,101372.38
2018-10-07T08:27:08.906Z,101377.39
2018-10-07T08:29:37.859Z,101381.35
2018-10-07T08:32:06.741Z,101392.78
2018-10-07T08:34:35.595Z,101392.46
2018-10-07T08:37:04.514Z,101393.83
2018-10-07T08:39:33.369Z,101391.05
2018-10-07T08:42:02.284Z,101395.08
2018-10-07T08:44:31.217Z,101400.31
2018-10-07T08:47:00.098Z,101403.59
2018-10-07T08:49:29.017Z,101412.48
2018-10-07T08:51:57.945Z,101414.62
2018-10-07T08:54:26.784Z,101416.16
2018-10-07T08:56:55.860Z,101432.97
2018-10-07T08:59:24.968Z,101436.06
2018-10-07T09:01:53.925Z,101441.61
2018-10-07T09:04:22.849Z,101447.80
2018-10-07T09:06:51.753Z,101437.80
2018-10-07T09:09:20.610Z,101442.26
2018-10-07T09:11:49.507Z,101451.25
2018-10-07T09:14:18.404Z,101454.45
2018-10-07T09:16:47.261Z,101458.34
2018-10-07T09:19:24.596Z,101456.12
2018-10-07T09:21:54.013Z,101459.09
2018-10-07T09:24:22.890Z,101462.70
2018-10-07T09:26:51.880Z,101460.59
2018-10-07T09:29:20.683Z,101463.50
2018-10-07T09:31:49.611Z,101468.65
2018-10-07T09:34:18.503Z,101474.55
2018-10-07T09:36:47.410Z,101475.52
2018-10-07T09:39:16.339Z,101473.38
2018-10-07T09:41:45.225Z,101480.61
2018-10-07T09:44:14.139Z,101479.56
2018-10-07T09:46:43.052Z,101480.83
2018-10-07T09:49:12.048Z,101493.84
2018-10-07T09:51:41.037Z,101486.21
2018-10-07T09:54:09.885Z,101486.94
2018-10-07T09:56:38.787Z,101488.75
2018-10-07T09:59:07.687Z,101494.20
2018-10-07T10:01:36.584Z,101491.18
2018-10-07T10:04:05.569Z,101496.95
2018-10-07T10:06:34.347Z,101490.73
2018-10-07T10:09:03.291Z,101494.45
2018-10-07T10:11:32.182Z,101494.83
2018-10-07T10:14:01.406Z,101495.50
2018-10-07T10:16:37.605Z,101507.47
2018-10-07T10:19:10.209Z,101502.60
2018-10-07T10:21:47.588Z,101507.12
2018-10-07T10:24:29.313Z,101505.86
2018-10-07T10:27:07.904Z,101507.70
2018-10-07T10:29:44.649Z,101510.70
2018-10-07T10:32:54.249Z,101514.16
2018-10-07T10:35:36.673Z,101508.20
2018-10-07T10:38:09.679Z,101508.00
2018-10-07T10:40:44.634Z,101506.64
2018-10-07T10:43:22.224Z,101517.25
2018-10-07T10:46:02.294Z,101508.51
2018-10-07T10:48:36.571Z,101516.17
2018-10-07T10:52:15.006Z,101509.13
2018-10-07T10:54:48.119Z,101517.52
2018-10-07T10:57:20.037Z,101526.72
2018-10-07T11:00:23.149Z,101526.85
2018-10-07T11:06:06.590Z,101519.09
2018-10-07T11:08:47.841Z,101519.34
2018-10-07T11:11:30.572Z,101520.44
2018-10-07T11:15:21.460Z,101532.30
2018-10-07T11:18:01.345Z,101522.23
2018-10-07T11:21:41.091Z,101530.47
2018-10-07T11:24:18.958Z,101517.95
2018-10-07T11:28:59.581Z,101525.37
2018-10-07T11:31:57.533Z,101514.73
2018-10-07T11:34:37.761Z,101517.77
2018-10-07T11:37:17.756Z,101526.55
2018-10-07T11:41:58.069Z,101534.08
2018-10-07T11:45:01.340Z,101533.77
2018-10-07T11:47:37.963Z,101542.11
2018-10-07T11:50:14.468Z,101544.26
2018-10-07T11:52:57.306Z,101545.44
2018-10-07T11:55:26.160Z,101550.12
2018-10-07T11:57:55.124Z,101553.59
2018-10-07T12:00:24.003Z,101555.81
2018-10-07T12:02:52.997Z,101566.23
2018-10-07T12:05:22.495Z,101562.80
2018-10-07T12:07:52.089Z,101562.20
2018-10-07T12:10:20.980Z,101547.38
2018-10-07T12:12:49.915Z,101552.83
2018-10-07T12:15:18.811Z,101556.59
2018-10-07T12:17:47.773Z,101555.94
2018-10-07T12:20:16.701Z,101559.52
2018-10-07T12:22:46.019Z,101558.29
2018-10-07T12:25:14.946Z,101558.86
2018-10-07T12:27:43.878Z,101551.72
2018-10-07T12:30:12.807Z,101554.12
2018-10-07T12:32:41.689Z,101546.03
2018-10-07T12:35:10.576Z,101543.91
2018-10-07T12:37:39.514Z,101549.59
2018-10-07T12:40:08.419Z,101555.42
2018-10-07T12:42:37.372Z,101562.22
2018-10-07T12:45:06.309Z,101566.61
2018-10-07T12:47:35.388Z,101565.27
2018-10-07T12:50:04.268Z,101573.64
2018-10-07T12:52:33.387Z,101585.84
2018-10-07T12:55:02.302Z,101583.14
2018-10-07T12:57:31.217Z,101579.98
2018-10-07T13:00:00.114Z,101577.46
2018-10-07T13:02:29.007Z,101580.94
2018-10-07T13:04:57.907Z,101592.79
2018-10-07T13:07:26.767Z,101598.93
2018-10-07T13:09:55.675Z,101599.50
2018-10-07T13:12:24.569Z,101604.45
2018-10-07T13:14:53.480Z,101597.59
2018-10-07T13:17:22.414Z,101607.92
2018-10-07T13:19:51.291Z,101614.72
2018-10-07T13:22:20.206Z,101613.11
2018-10-07T13:24:49.098Z,101611.42
2018-10-07T13:27:18.054Z,101613.77
2018-10-07T13:29:47.166Z,101618.95
2018-10-07T13:32:16.036Z,101614.78
2018-10-07T13:34:44.997Z,101611.19
2018-10-07T13:37:13.986Z,101609.06
2018-10-07T13:39:42.939Z,101609.34
2018-10-07T13:42:11.807Z,101610.11
2018-10-07T13:44:40.702Z,101619.44
2018-10-07T13:47:09.582Z,101613.77
2018-10-07T13:49:38.532Z,101627.16
2018-10-07T13:52:07.459Z,101634.64
2018-10-07T13:54:36.376Z,101622.83
2018-10-07T13:57:05.248Z,101627.17
2018-10-07T13:59:34.157Z,101628.57
2018-10-07T14:02:03.011Z,101628.17
2018-10-07T14:04:31.920Z,101632.72
2018-10-07T14:07:00.846Z,101626.53
2018-10-07T14:09:29.719Z,101630.64
2018-10-07T14:11:58.609Z,101632.34
2018-10-07T14:14:27.510Z,101623.95
2018-10-07T14:16:56.449Z,101629.13
2018-10-07T14:19:25.328Z,101624.19
2018-10-07T14:21:54.215Z,101636.39
2018-10-07T14:24:23.102Z,101636.67
2018-10-07T14:26:52.007Z,101631.59
2018-10-07T14:29:20.878Z,101633.28
2018-10-07T14:31:49.773Z,101638.91
2018-10-07T14:34:18.671Z,101636.50
2018-10-07T14:36:47.596Z,101634.83
2018-10-07T14:39:16.532Z,101642.50
2018-10-07T14:41:45.378Z,101645.43
2018-10-07T14:44:14.443Z,101658.53
2018-10-07T14:46:43.333Z,101662.92
2018-10-07T14:49:12.189Z,101660.06
2018-10-07T14:51:41.107Z,101666.58
2018-10-07T14:54:09.984Z,101666.09
2018-10-07T14:56:38.979Z,101664.39
2018-10-07T14:59:07.892Z,101664.68
2018-10-07T15:01:36.768Z,101655.86
2018-10-07T15:04:05.843Z,101664.19
2018-10-07T15:06:35.050Z,101665.28
2018-10-07T15:09:04.741Z,101662.75
2018-10-07T15:11:33.997Z,101665.91
2018-10-07T15:14:02.928Z,101669.52
2018-10-07T15:16:31.866Z,101677.95
2018-10-07T15:19:00.786Z,101681.42
2018-10-07T15:21:29.753Z,101687.69
2018-10-07T15:23:58.866Z,101686.37
2018-10-07T15:26:27.852Z,101691.91
2018-10-07T15:28:56.769Z,101690.22
2018-10-07T15:31:25.681Z,101688.13
2018-10-07T15:33:54.542Z,101679.59
2018-10-07T15:36:23.431Z,101676.44
2018-10-07T15:38:52.343Z,101678.61
2018-10-07T15:41:21.411Z,101682.78
2018-10-07T15:43:50.361Z,101680.54
2018-10-07T15:46:19.528Z,101693.98
2018-10-07T15:48:48.452Z,101702.37
2018-10-07T15:51:17.439Z,101699.54
2018-10-07T15:53:46.396Z,101711.98
2018-10-07T15:56:15.311Z,101709.12
2018-10-07T15:58:44.269Z,101705.61
2018-10-07T16:01:13.177Z,101703.83
2018-10-07T16:03:42.085Z,101700.38
2018-10-07T16:06:11.004Z,101695.27
2018-10-07T16:08:41.569Z,101707.87
2018-10-07T16:11:10.467Z,101707.95
2018-10-07T16:13:39.551Z,101706.41
2018-10-07T16:16:08.464Z,101724.09
2018-10-07T16:18:37.458Z,101723.42
2018-10-07T16:21:06.304Z,101728.02
2018-10-07T16:23:35.257Z,101737.44
2018-10-07T16:26:04.158Z,101745.05
2018-10-07T16:28:33.111Z,101742.52
2018-10-07T16:31:02.138Z,101743.67
2018-10-07T16:33:31.927Z,101747.48
2018-10-07T16:36:00.959Z,101749.92
2018-10-07T16:38:29.966Z,101760.67
2018-10-07T16:40:58.850Z,101763.44
2018-10-07T16:43:27.772Z,101760.38
2018-10-07T16:45:56.671Z,101759.67
2018-10-07T16:48:25.606Z,101760.47
2018-10-07T16:50:54.556Z,101766.72
2018-10-07T16:53:23.451Z,101771.54
2018-10-07T16:55:52.360Z,101764.52
2018-10-07T16:58:21.297Z,101768.23
2018-10-07T17:00:50.283Z,101771.01
2018-10-07T17:03:19.210Z,101777.05
2018-10-07T17:05:48.103Z,101783.20
2018-10-07T17:08:17.231Z,101775.05
2018-10-07T17:10:46.165Z,101778.99
2018-10-07T17:13:15.255Z,101781.11
2018-10-07T17:15:44.025Z,101772.02
2018-10-07T17:18:13.034Z,101775.69
2018-10-07T17:20:41.950Z,101773.48
2018-10-07T17:23:10.874Z,101767.42
2018-10-07T17:25:39.772Z,101770.45
2018-10-07T17:28:08.669Z,101774.94
2018-10-07T17:30:37.578Z,101784.81
2018-10-07T17:33:06.522Z,101782.50
2018-10-07T17:35:35.448Z,101785.36
2018-10-07T17:38:04.357Z,101788.14
2018-10-07T17:40:33.254Z,101788.11
2018-10-07T17:43:02.186Z,101790.03
2018-10-07T17:45:31.163Z,101788.75
2018-10-07T17:48:00.127Z,101797.31
2018-10-07T17:50:29.109Z,101805.42
2018-10-07T17:52:57.976Z,101798.19
2018-10-07T17:55:26.895Z,101799.50
2018-10-07T17:57:55.863Z,101807.36
2018-10-07T18:00:24.761Z,101807.39
2018-10-07T18:02:53.934Z,101806.30
2018-10-07T18:05:22.815Z,101800.49
2018-10-07T18:07:51.700Z,101811.59
2018-10-07T18:10:20.634Z,101817.59
2018-10-07T18:12:49.585Z,101819.86
2018-10-07T18:15:18.531Z,101831.78
2018-10-07T18:17:47.490Z,101839.02
2018-10-07T18:20:16.489Z,101844.03
2018-10-07T18:22:45.346Z,101847.89
2018-10-07T18:25:14.311Z,101850.94
2018-10-07T18:27:43.217Z,101853.12
2018-10-07T18:30:12.125Z,101859.09
2018-10-07T18:32:41.043Z,101865.41
2018-10-07T18:35:09.957Z,101862.00
2018-10-07T18:37:38.900Z,101866.47
2018-10-07T18:40:07.914Z,101864.59
2018-10-07T18:42:36.794Z,101867.78
2018-10-07T18:45:05.847Z,101870.67
2018-10-07T18:47:34.741Z,101878.95
2018-10-07T18:50:03.652Z,101879.49
2018-10-07T18:52:32.579Z,101882.38
2018-10-07T18:55:01.552Z,101879.30
2018-10-07T18:57:30.464Z,101880.03
2018-10-07T18:59:59.353Z,101885.80
2018-10-07T19:02:28.269Z,101882.61
2018-10-07T19:04:57.219Z,101884.98
2018-10-07T19:07:26.145Z,101879.19
2018-10-07T19:09:55.381Z,101867.20
2018-10-07T19:12:24.275Z,101872.61
2018-10-07T19:14:53.201Z,101870.75
2018-10-07T19:17:22.215Z,101868.88
2018-10-07T19:19:51.174Z,101865.80
2018-10-07T19:22:22.805Z,101867.55
2018-10-07T19:24:51.719Z,101875.70
2018-10-07T19:27:20.642Z,101871.56
2018-10-07T19:29:50.414Z,101870.84
2018-10-07T19:32:19.301Z,101869.81
2018-10-07T19:34:48.272Z,101872.06
2018-10-07T19:37:17.384Z,101865.25
2018-10-07T19:39:46.131Z,101869.88
2018-10-07T19:42:15.068Z,101865.31
2018-10-07T19:44:44.111Z,101869.29
2018-10-07T19:47:12.991Z,101867.11
2018-10-07T19:49:41.910Z,101874.77
2018-10-07T19:52:10.869Z,101878.05
2018-10-07T19:54:39.749Z,101884.09
2018-10-07T19:57:08.684Z,101881.00
2018-10-07T19:59:37.596Z,101883.86
2018-10-07T20:02:06.605Z,101883.13
2018-10-07T20:04:35.529Z,101887.84
2018-10-07T20:07:04.502Z,101892.94
2018-10-07T20:09:33.455Z,101899.27
2018-10-07T20:12:02.399Z,101902.41
2018-10-07T20:14:31.291Z,101897.65
2018-10-07T20:17:00.237Z,101893.94
2018-10-07T20:19:29.184Z,101900.50
2018-10-07T20:21:58.091Z,101897.87
2018-10-07T20:24:27.012Z,101889.45
2018-10-07T20:26:55.889Z,101901.73
2018-10-07T20:29:24.867Z,101902.17
2018-10-07T20:31:53.797Z,101910.41
2018-10-07T20:34:22.799Z,101898.16
2018-10-07T20:36:51.700Z,101907.08
2018-10-07T20:39:20.582Z,101896.70
2018-10-07T20:41:49.523Z,101893.91
2018-10-07T20:44:19.283Z,101897.78
2018-10-07T20:46:48.144Z,101897.23
2018-10-07T20:49:17.134Z,101906.69
2018-10-07T20:51:46.101Z,101903.84
2018-10-07T20:54:15.019Z,101906.46
2018-10-07T20:56:44.124Z,101900.80
2018-10-07T20:59:13.001Z,101899.42
2018-10-07T21:01:41.898Z,101888.97
2018-10-07T21:04:13.705Z,101887.83
2018-10-07T21:06:42.534Z,101883.08
2018-10-07T21:09:12.266Z,101885.81
2018-10-07T21:11:41.128Z,101879.48
2018-10-07T21:14:10.030Z,101879.50
2018-10-07T21:16:38.946Z,101872.52
2018-10-07T21:19:07.816Z,101874.97
2018-10-07T21:21:36.696Z,101870.37
2018-10-07T21:24:05.616Z,101877.84
2018-10-07T21:26:34.457Z,101877.45
2018-10-07T21:29:03.344Z,101876.79
2018-10-07T21:31:32.282Z,101879.78
2018-10-07T21:34:01.181Z,101875.22
2018-10-07T21:36:30.044Z,101869.81
2018-10-07T21:38:58.921Z,101862.53
2018-10-07T21:41:27.921Z,101864.70
2018-10-07T21:43:56.992Z,101862.72
2018-10-07T21:46:25.965Z,101861.00
2018-10-07T21:48:54.859Z,101861.18
2018-10-07T21:51:23.745Z,101853.61
2018-10-07T21:53:52.667Z,101849.89
2018-10-07T21:56:21.541Z,101857.92
2018-10-07T21:58:50.567Z,101860.83
2018-10-07T22:01:19.607Z,101866.67
2018-10-07T22:03:48.463Z,101861.31
2018-10-07T22:06:17.359Z,101864.37
2018-10-07T22:08:46.537Z,101855.17
2018-10-07T22:11:15.463Z,101858.59
2018-10-07T22:13:44.301Z,101854.35
2018-10-07T22:16:13.212Z,101854.83
2018-10-07T22:18:42.150Z,101851.89
2018-10-07T22:21:11.295Z,101851.28
2018-10-07T22:23:40.200Z,101855.48
2018-10-07T22:26:09.091Z,101856.68
2018-10-07T22:28:38.085Z,101854.63
2018-10-07T22:31:07.130Z,101849.22
2018-10-07T22:33:36.045Z,101845.80
2018-10-07T22:36:04.921Z,101853.49
2018-10-07T22:38:33.871Z,101855.36
2018-10-07T22:41:02.751Z,101855.30
2018-10-07T22:43:31.660Z,101857.45
2018-10-07T22:46:00.511Z,101861.09
2018-10-07T22:48:29.407Z,101860.05
2018-10-07T22:50:58.322Z,101868.62
2018-10-07T22:53:27.210Z,101866.61
2018-10-07T22:55:56.083Z,101867.27
2018-10-07T22:58:28.938Z,101868.55
2018-10-07T23:00:57.852Z,101879.87
2018-10-07T23:03:26.706Z,101880.17
2018-10-07T23:05:55.608Z,101881.59
2018-10-07T23:08:25.705Z,101886.02
2018-10-07T23:10:54.570Z,101889.30
2018-10-07T23:13:23.448Z,101881.52
2018-10-07T23:15:52.350Z,101889.66
2018-10-07T23:18:21.224Z,101884.31
2018-10-07T23:20:50.194Z,101887.74
2018-10-07T23:23:19.099Z,101889.46
2018-10-07T23:25:47.963Z,101889.23
2018-10-07T23:28:16.891Z,101889.91
2018-10-07T23:30:45.771Z,101894.73
2018-10-07T23:33:14.797Z,101891.23
2018-10-07T23:35:43.647Z,101888.84
2018-10-07T23:38:12.515Z,101887.01
2018-10-07T23:40:42.632Z,101884.81
2018-10-07T23:43:11.542Z,101879.61
2018-10-07T23:45:40.436Z,101874.31
2018-10-07T23:48:09.283Z,101872.03
2018-10-07T23:50:38.144Z,101872.42
2018-10-07T23:53:07.032Z,101883.49
2018-10-07T23:55:35.910Z,101879.45
2018-10-07T23:58:04.755Z,101875.93
